Time;durP1;ratioP1;P1;durP2;ratioP2;P2;SDS_P1;SDS_P2;PMS_P1;PMS_P2;Temp;Humidity;BMP_temperature;BMP_pressure;BME280_temperature;BME280_humidity;BME280_pressure;Samples;Min_cycle;Max_cycle;Signal;HPM_P1;HPM_P2
2023/04/09 00:02:13;;;;;;;37.13;26.10;;;12.20;94.60;;;;;;5035156;28;20072;-74
2023/04/09 00:04:38;;;;;;;34.88;24.90;;;12.20;94.70;;;;;;5048080;28;20017;-74
2023/04/09 00:07:04;;;;;;;35.72;24.10;;;12.20;94.60;;;;;;5037060;28;20771;-73
2023/04/09 00:09:30;;;;;;;35.13;26.50;;;12.20;94.70;;;;;;5044956;28;20033;-74
2023/04/09 00:11:57;;;;;;;38.72;26.52;;;12.20;94.70;;;;;;5037705;28;20149;-74
2023/04/09 00:14:23;;;;;;;45.13;27.42;;;12.20;94.80;;;;;;5039914;28;20021;-75
2023/04/09 00:16:49;;;;;;;40.67;27.05;;;12.10;94.70;;;;;;5033866;28;20025;-75
2023/04/09 00:19:15;;;;;;;42.70;29.42;;;12.10;94.70;;;;;;5037006;28;20556;-74
2023/04/09 00:21:42;;;;;;;41.40;27.25;;;12.10;94.80;;;;;;5044956;28;20033;-75
2023/04/09 00:24:07;;;;;;;39.67;26.35;;;12.10;94.80;;;;;;5041515;28;20030;-75
2023/04/09 00:26:33;;;;;;;36.97;26.25;;;12.10;94.80;;;;;;5043308;28;20021;-74
2023/04/09 00:28:59;;;;;;;37.67;26.42;;;12.10;94.80;;;;;;5037755;28;20029;-74
2023/04/09 00:31:25;;;;;;;38.25;27.33;;;12.20;94.90;;;;;;5047329;28;20016;-74
2023/04/09 00:33:50;;;;;;;40.42;27.40;;;12.20;94.90;;;;;;5033220;28;20032;-74
2023/04/09 00:36:17;;;;;;;42.67;28.00;;;12.20;94.70;;;;;;5030510;28;20029;-74
2023/04/09 00:38:43;;;;;;;46.67;29.10;;;12.30;95.10;;;;;;5047363;28;20068;-73
2023/04/09 00:41:09;;;;;;;38.55;27.30;;;12.30;94.70;;;;;;5044865;28;20053;-74
2023/04/09 00:43:35;;;;;;;46.03;30.20;;;12.30;94.70;;;;;;5044635;28;20486;-75
2023/04/09 00:46:01;;;;;;;34.45;24.67;;;12.30;94.70;;;;;;5038738;28;20132;-74
2023/04/09 00:48:27;;;;;;;43.88;29.25;;;12.30;94.60;;;;;;5044199;28;20496;-75
2023/04/09 00:50:53;;;;;;;43.83;28.38;;;12.30;94.60;;;;;;5046184;28;20029;-75
2023/04/09 00:53:19;;;;;;;35.72;24.40;;;12.30;94.60;;;;;;5035293;28;20025;-74
2023/04/09 00:55:45;;;;;;;43.83;29.17;;;12.30;94.60;;;;;;5037969;28;20017;-73
2023/04/09 00:58:11;;;;;;;39.88;26.08;;;12.30;94.60;;;;;;5043203;28;20017;-75
2023/04/09 01:00:37;;;;;;;46.40;29.83;;;12.20;94.60;;;;;;5040094;28;20032;-75
2023/04/09 01:03:04;;;;;;;35.75;24.88;;;12.20;94.70;;;;;;5042963;28;20021;-74
2023/04/09 01:05:41;;;;;;;37.83;26.00;;;12.10;94.80;;;;;;5038896;28;20056;-74
2023/04/09 01:08:38;;;;;;;34.95;25.50;;;12.10;94.90;;;;;;5035130;28;20517;-75
2023/04/09 01:11:43;;;;;;;47.33;30.83;;;12.10;94.90;;;;;;5036097;28;20053;-74
2023/04/09 01:14:25;;;;;;;46.63;31.48;;;12.10;94.90;;;;;;5045661;28;20037;-74
2023/04/09 01:16:59;;;;;;;40.53;27.52;;;12.00;95.00;;;;;;5042526;28;20025;-74
2023/04/09 01:19:45;;;;;;;44.97;30.25;;;12.00;95.00;;;;;;5043888;28;20102;-74
2023/04/09 01:22:46;;;;;;;43.65;29.65;;;12.00;95.00;;;;;;5048006;28;20044;-74
2023/04/09 01:25:45;;;;;;;46.78;31.67;;;12.00;95.10;;;;;;5032375;28;20029;-74
2023/04/09 01:28:45;;;;;;;44.30;30.98;;;12.00;95.10;;;;;;5042693;28;20036;-73
2023/04/09 01:31:17;;;;;;;40.08;28.38;;;12.00;95.10;;;;;;5040747;28;20072;-74
2023/04/09 01:33:43;;;;;;;45.80;29.23;;;12.00;95.20;;;;;;5048214;28;20025;-73
2023/04/09 01:36:10;;;;;;;45.88;31.08;;;12.00;95.20;;;;;;5049302;28;20484;-74
2023/04/09 01:38:38;;;;;;;39.22;26.42;;;12.00;95.30;;;;;;5035934;28;20029;-73
2023/04/09 01:41:06;;;;;;;42.67;27.58;;;12.10;95.30;;;;;;5046633;28;20130;-74
2023/04/09 01:43:33;;;;;;;40.38;29.27;;;12.00;95.20;;;;;;5040122;28;20045;-74
2023/04/09 01:46:01;;;;;;;40.63;28.08;;;12.00;95.20;;;;;;5041511;28;20019;-74
2023/04/09 01:48:29;;;;;;;43.63;28.52;;;12.00;95.30;;;;;;5035535;28;20480;-74
2023/04/09 01:50:57;;;;;;;42.33;27.92;;;12.10;95.30;;;;;;5040611;28;20053;-75
2023/04/09 01:53:23;;;;;;;43.30;28.48;;;12.10;95.20;;;;;;5048488;28;20021;-73
2023/04/09 01:55:48;;;;;;;44.88;31.58;;;12.10;95.20;;;;;;5037626;28;20542;-74
2023/04/09 01:58:14;;;;;;;41.95;27.90;;;12.10;95.20;;;;;;5047504;28;20100;-73
2023/04/09 02:00:46;;;;;;;44.65;31.80;;;12.10;95.20;;;;;;5037837;28;20026;-73
2023/04/09 02:03:25;;;;;;;43.95;29.90;;;12.10;95.20;;;;;;5042148;28;20025;-74
2023/04/09 02:06:11;;;;;;;43.15;28.40;;;12.10;95.20;;;;;;5050267;28;20032;-74
2023/04/09 02:08:36;;;;;;;39.38;27.27;;;12.10;95.20;;;;;;5049564;28;20067;-74
2023/04/09 02:11:05;;;;;;;40.85;27.33;;;12.10;95.10;;;;;;5029895;28;20795;-75
2023/04/09 02:13:33;;;;;;;42.40;28.48;;;12.10;95.10;;;;;;5043614;28;20087;-74
2023/04/09 02:16:00;;;;;;;38.20;26.60;;;12.10;95.20;;;;;;5048107;28;20556;-74
2023/04/09 02:18:27;;;;;;;39.75;28.67;;;12.10;95.60;;;;;;5039337;28;20407;-73
2023/04/09 02:20:54;;;;;;;44.05;30.17;;;12.10;95.30;;;;;;5038770;28;20033;-74
2023/04/09 02:23:20;;;;;;;39.75;27.08;;;12.10;95.20;;;;;;5046022;28;20103;-74
2023/04/09 02:25:47;;;;;;;40.25;27.35;;;12.10;95.10;;;;;;5033847;28;20033;-74
2023/04/09 02:28:12;;;;;;;39.17;26.67;;;12.00;95.30;;;;;;5040573;28;20642;-73
2023/04/09 02:30:38;;;;;;;37.10;26.15;;;12.00;95.30;;;;;;5048557;28;20031;-74
2023/04/09 02:33:04;;;;;;;34.72;23.92;;;12.00;95.30;;;;;;5048398;28;20028;-73
2023/04/09 02:35:30;;;;;;;38.47;26.83;;;12.00;95.40;;;;;;5049402;28;20395;-74
2023/04/09 02:37:55;;;;;;;40.05;26.45;;;12.00;95.40;;;;;;5046440;28;20021;-74
2023/04/09 02:40:21;;;;;;;44.33;31.15;;;12.00;95.50;;;;;;5050124;28;20017;-73
2023/04/09 02:42:47;;;;;;;35.00;25.55;;;11.90;95.50;;;;;;5043420;28;20063;-73
2023/04/09 02:45:12;;;;;;;40.20;28.17;;;11.80;95.10;;;;;;5038060;28;20537;-73
2023/04/09 02:47:38;;;;;;;35.58;24.38;;;11.80;95.00;;;;;;5042204;28;20036;-75
2023/04/09 02:50:04;;;;;;;38.92;27.85;;;11.80;95.20;;;;;;5049007;28;20499;-74
2023/04/09 02:52:30;;;;;;;36.05;25.30;;;11.80;95.30;;;;;;5041509;28;20034;-74
2023/04/09 02:54:56;;;;;;;37.08;26.00;;;11.80;95.30;;;;;;5044463;28;20059;-73
2023/04/09 02:57:21;;;;;;;41.45;27.27;;;11.80;95.30;;;;;;5040939;28;20096;-73
2023/04/09 02:59:47;;;;;;;40.25;28.55;;;11.90;95.30;;;;;;5042788;28;20021;-74
2023/04/09 03:02:13;;;;;;;40.45;26.88;;;11.90;95.20;;;;;;5041180;28;20021;-73
2023/04/09 03:04:38;;;;;;;38.28;26.17;;;11.90;95.10;;;;;;5044054;28;20484;-74
2023/04/09 03:07:04;;;;;;;32.38;23.00;;;11.90;95.20;;;;;;5050184;28;20028;-74
2023/04/09 03:09:30;;;;;;;37.42;25.88;;;11.90;95.10;;;;;;5046071;28;20431;-72
2023/04/09 03:11:56;;;;;;;41.65;27.90;;;11.80;95.20;;;;;;5047969;28;20487;-74
2023/04/09 03:14:25;;;;;;;39.85;26.83;;;11.80;95.20;;;;;;5043220;28;20029;-73
2023/04/09 03:16:50;;;;;;;42.53;28.77;;;11.80;95.40;;;;;;5038875;28;20028;-74
2023/04/09 03:19:16;;;;;;;37.25;26.50;;;11.80;95.50;;;;;;5041584;28;20053;-74
2023/04/09 03:21:42;;;;;;;37.63;26.85;;;11.90;95.40;;;;;;5047461;28;20033;-74
2023/04/09 03:24:07;;;;;;;38.13;26.05;;;11.90;95.40;;;;;;5045656;28;20033;-74
2023/04/09 03:26:36;;;;;;;40.85;28.95;;;11.90;95.40;;;;;;5047783;28;20494;-74
2023/04/09 03:29:05;;;;;;;40.53;29.42;;;11.90;95.40;;;;;;5036175;28;20094;-73
2023/04/09 03:31:31;;;;;;;38.47;25.80;;;11.90;95.40;;;;;;5046148;28;20055;-74
2023/04/09 03:33:57;;;;;;;37.33;25.83;;;11.80;95.50;;;;;;5048899;28;20021;-74
2023/04/09 03:36:23;;;;;;;39.75;27.75;;;11.80;95.40;;;;;;5047785;28;20024;-76
2023/04/09 03:38:48;;;;;;;42.17;28.92;;;11.70;95.50;;;;;;5049056;28;20045;-75
2023/04/09 03:41:14;;;;;;;44.85;32.53;;;11.70;95.60;;;;;;5044800;28;20537;-74
2023/04/09 03:43:40;;;;;;;40.65;28.52;;;11.70;95.70;;;;;;5035733;28;20089;-73
2023/04/09 03:46:16;;;;;;;41.85;27.38;;;11.70;95.60;;;;;;5047948;28;20110;-74
2023/04/09 03:48:43;;;;;;;45.72;29.77;;;11.70;95.60;;;;;;5032867;28;20033;-72
2023/04/09 03:51:13;;;;;;;44.67;28.08;;;11.70;95.60;;;;;;5047148;28;20024;-73
2023/04/09 03:53:39;;;;;;;39.17;27.02;;;11.70;95.60;;;;;;5046828;28;20035;-74
2023/04/09 03:56:05;;;;;;;41.50;27.80;;;11.60;95.50;;;;;;5036133;28;20514;-73
2023/04/09 03:58:31;;;;;;;40.58;25.20;;;11.50;95.60;;;;;;5044980;28;20037;-72
2023/04/09 04:00:57;;;;;;;38.60;26.23;;;11.50;95.70;;;;;;5044673;28;20063;-75
2023/04/09 04:03:22;;;;;;;35.90;24.98;;;11.50;95.70;;;;;;5045400;28;20025;-73
2023/04/09 04:05:48;;;;;;;40.30;26.38;;;11.40;95.70;;;;;;5038519;28;20013;-74
2023/04/09 04:08:13;;;;;;;36.17;24.70;;;11.40;96.10;;;;;;5048820;28;20044;-75
2023/04/09 04:10:39;;;;;;;39.60;28.48;;;11.30;95.80;;;;;;5045862;28;20033;-73
2023/04/09 04:13:08;;;;;;;37.42;26.52;;;11.30;96.20;;;;;;5033629;28;20032;-74
2023/04/09 04:15:43;;;;;;;30.58;20.08;;;11.30;96.00;;;;;;5028820;28;20101;-74
2023/04/09 04:18:09;;;;;;;34.72;24.15;;;11.30;96.30;;;;;;5031692;28;20017;-74
2023/04/09 04:20:36;;;;;;;33.25;21.20;;;11.30;96.30;;;;;;5037029;28;20097;-74
2023/04/09 04:23:03;;;;;;;38.95;25.67;;;11.30;96.30;;;;;;5043921;28;20029;-75
2023/04/09 04:25:29;;;;;;;30.30;20.02;;;11.30;96.20;;;;;;5048310;28;20071;-74
2023/04/09 04:27:55;;;;;;;32.88;23.58;;;11.30;96.20;;;;;;5047856;28;20029;-74
2023/04/09 04:30:21;;;;;;;35.33;21.95;;;11.20;96.10;;;;;;5048612;28;20094;-74
2023/04/09 04:32:47;;;;;;;40.45;27.60;;;11.30;96.10;;;;;;5044092;28;20553;-74
2023/04/09 04:35:13;;;;;;;40.95;30.20;;;11.30;95.80;;;;;;5047589;28;20036;-74
2023/04/09 04:37:39;;;;;;;35.50;24.90;;;11.20;95.70;;;;;;5041907;28;20079;-74
2023/04/09 04:40:09;;;;;;;36.08;24.10;;;11.20;96.20;;;;;;5027861;28;20056;-74
2023/04/09 04:42:34;;;;;;;43.55;29.00;;;11.10;96.00;;;;;;5045313;28;20116;-74
2023/04/09 04:45:00;;;;;;;41.88;28.85;;;11.00;96.00;;;;;;5035090;28;20101;-74
2023/04/09 04:47:26;;;;;;;36.88;25.58;;;11.00;96.10;;;;;;5038763;28;20572;-74
2023/04/09 04:49:52;;;;;;;40.35;27.85;;;11.00;96.10;;;;;;5050330;28;20032;-74
2023/04/09 04:52:18;;;;;;;35.78;25.13;;;10.90;96.00;;;;;;5039473;28;20014;-75
2023/04/09 04:54:44;;;;;;;36.75;25.63;;;10.90;96.00;;;;;;5052333;28;20060;-75
2023/04/09 04:57:09;;;;;;;31.73;21.65;;;10.90;96.00;;;;;;5039408;28;20045;-75
2023/04/09 04:59:39;;;;;;;34.40;23.48;;;10.90;96.20;;;;;;5053021;28;20017;-74
2023/04/09 05:02:06;;;;;;;35.70;23.48;;;10.90;96.20;;;;;;5040905;28;20036;-74
2023/04/09 05:04:31;;;;;;;35.55;24.85;;;10.90;96.20;;;;;;5051105;28;20063;-74
2023/04/09 05:06:57;;;;;;;43.70;30.17;;;10.90;96.10;;;;;;5051897;28;20106;-74
2023/04/09 05:09:23;;;;;;;37.65;26.42;;;10.90;96.10;;;;;;5049673;28;20044;-73
2023/04/09 05:11:48;;;;;;;32.40;23.05;;;10.90;96.00;;;;;;5051477;28;20431;-74
2023/04/09 05:14:14;;;;;;;31.63;22.40;;;10.90;95.70;;;;;;5047908;28;20025;-74
2023/04/09 05:16:40;;;;;;;29.05;20.52;;;10.90;95.70;;;;;;5038754;28;20412;-75
2023/04/09 05:19:06;;;;;;;33.72;22.65;;;10.80;95.80;;;;;;5043086;28;20523;-74
2023/04/09 05:21:31;;;;;;;38.05;26.08;;;10.70;96.10;;;;;;5042275;28;20033;-75
2023/04/09 05:23:57;;;;;;;34.25;24.15;;;10.70;95.60;;;;;;5048644;28;20021;-74
2023/04/09 05:26:23;;;;;;;39.53;26.30;;;10.60;95.50;;;;;;5051201;28;20762;-74
2023/04/09 05:28:49;;;;;;;38.30;24.80;;;10.50;95.60;;;;;;5039759;28;20099;-74
2023/04/09 05:31:14;;;;;;;29.70;20.02;;;10.50;95.70;;;;;;5049030;28;20116;-74
2023/04/09 05:33:41;;;;;;;30.73;21.45;;;10.50;95.90;;;;;;5049115;28;20013;-75
2023/04/09 05:36:07;;;;;;;32.42;21.42;;;10.40;96.00;;;;;;5051112;28;20039;-74
2023/04/09 05:38:33;;;;;;;34.85;22.83;;;10.40;95.90;;;;;;5032804;28;20025;-73
2023/04/09 05:40:59;;;;;;;36.40;23.75;;;10.20;95.70;;;;;;5050556;28;20037;-73
2023/04/09 05:43:25;;;;;;;39.85;24.95;;;10.20;95.80;;;;;;5038078;28;20071;-74
2023/04/09 05:45:50;;;;;;;39.90;25.45;;;10.20;95.90;;;;;;5050243;28;20025;-74
2023/04/09 05:48:17;;;;;;;38.33;24.80;;;10.20;95.80;;;;;;5038295;28;20042;-73
2023/04/09 05:50:51;;;;;;;37.42;25.15;;;10.20;95.80;;;;;;5047414;28;20483;-74
2023/04/09 05:53:18;;;;;;;39.60;24.73;;;10.10;95.70;;;;;;5045805;28;20508;-73
2023/04/09 05:55:45;;;;;;;40.08;26.08;;;10.20;95.80;;;;;;5045869;28;20095;-73
2023/04/09 05:58:11;;;;;;;36.63;24.35;;;10.10;95.80;;;;;;5031535;28;20018;-73
2023/04/09 06:00:36;;;;;;;40.83;27.15;;;10.10;95.80;;;;;;5034043;28;20026;-74
2023/04/09 06:03:03;;;;;;;40.13;27.85;;;10.20;95.90;;;;;;5035192;28;20029;-73
2023/04/09 06:05:28;;;;;;;37.60;23.55;;;10.20;95.80;;;;;;5048024;28;20618;-73
2023/04/09 06:07:54;;;;;;;36.53;24.88;;;10.20;95.80;;;;;;5046391;28;20056;-73
2023/04/09 06:10:20;;;;;;;32.42;20.92;;;10.20;95.90;;;;;;5038439;28;20024;-74
2023/04/09 06:12:46;;;;;;;34.55;22.92;;;10.30;95.90;;;;;;5044916;28;20100;-75
2023/04/09 06:15:11;;;;;;;36.20;23.88;;;10.30;95.80;;;;;;5043018;28;20147;-73
2023/04/09 06:17:37;;;;;;;35.63;23.48;;;10.40;95.70;;;;;;5044030;28;20160;-73
2023/04/09 06:20:03;;;;;;;34.95;20.92;;;10.50;95.40;;;;;;5045432;28;20769;-75
2023/04/09 06:22:29;;;;;;;37.38;25.38;;;10.50;95.30;;;;;;5042202;28;20032;-74
2023/04/09 06:25:00;;;;;;;38.33;24.55;;;10.50;95.20;;;;;;5037179;28;20032;-74
2023/04/09 06:27:26;;;;;;;43.20;29.20;;;10.50;95.10;;;;;;5041318;28;20029;-74
2023/04/09 06:29:52;;;;;;;42.55;28.35;;;10.60;94.90;;;;;;5038307;28;20550;-74
2023/04/09 06:32:17;;;;;;;40.10;25.13;;;10.60;94.80;;;;;;5036019;28;20025;-74
2023/04/09 06:34:43;;;;;;;44.20;28.63;;;10.70;94.90;;;;;;5036529;28;20020;-74
2023/04/09 06:37:09;;;;;;;37.60;24.70;;;10.70;94.60;;;;;;5040384;28;20107;-74
2023/04/09 06:39:35;;;;;;;37.40;23.83;;;10.70;94.70;;;;;;5038044;28;20476;-73
2023/04/09 06:42:00;;;;;;;42.08;23.75;;;10.70;94.60;;;;;;5038285;28;20021;-75
2023/04/09 06:44:26;;;;;;;36.97;23.50;;;10.80;95.10;;;;;;5044487;28;20495;-75
2023/04/09 06:46:51;;;;;;;33.45;21.45;;;10.80;95.00;;;;;;5038791;28;20021;-75
2023/04/09 06:49:17;;;;;;;37.17;24.05;;;10.80;94.80;;;;;;5040890;28;20020;-74
2023/04/09 06:51:43;;;;;;;35.65;24.15;;;10.90;94.70;;;;;;5040757;28;20403;-73
2023/04/09 06:54:12;;;;;;;41.58;27.83;;;11.00;94.70;;;;;;5038258;28;20093;-74
2023/04/09 06:56:38;;;;;;;41.93;27.17;;;11.00;94.60;;;;;;5040194;28;20025;-73
2023/04/09 06:59:04;;;;;;;39.20;24.15;;;11.10;94.60;;;;;;5039315;28;20268;-73
2023/04/09 07:01:30;;;;;;;36.05;23.60;;;11.10;94.20;;;;;;5047332;23;20454;-74
2023/04/09 07:03:55;;;;;;;32.03;20.73;;;11.40;94.40;;;;;;5042066;28;20063;-74
2023/04/09 07:06:21;;;;;;;36.67;21.88;;;11.60;94.20;;;;;;5022208;28;20455;-75
2023/04/09 07:08:50;;;;;;;30.52;18.55;;;11.80;94.00;;;;;;5038860;28;20048;-74
2023/04/09 07:11:16;;;;;;;28.50;18.05;;;11.90;93.80;;;;;;5034329;28;20568;-75
2023/04/09 07:13:42;;;;;;;27.33;17.88;;;12.10;93.80;;;;;;5024616;28;20101;-74
2023/04/09 07:16:07;;;;;;;27.52;18.13;;;12.20;93.60;;;;;;5040493;28;20017;-75
2023/04/09 07:18:33;;;;;;;31.73;19.90;;;12.20;93.30;;;;;;5023885;28;20075;-76
2023/04/09 07:20:59;;;;;;;27.50;17.25;;;12.30;93.20;;;;;;5038391;28;20166;-75
2023/04/09 07:23:24;;;;;;;26.38;17.23;;;12.40;93.30;;;;;;5040312;28;20030;-74
2023/04/09 07:25:50;;;;;;;26.65;18.13;;;12.50;93.20;;;;;;5040197;28;20447;-75
2023/04/09 07:28:18;;;;;;;26.67;18.35;;;12.70;93.10;;;;;;5044001;28;20364;-75
2023/04/09 07:30:45;;;;;;;30.40;20.52;;;12.80;92.90;;;;;;5041326;28;20036;-75
2023/04/09 07:33:10;;;;;;;25.65;17.70;;;12.90;92.70;;;;;;5027811;28;20017;-76
2023/04/09 07:35:36;;;;;;;25.65;17.67;;;13.10;92.50;;;;;;5028848;28;20468;-74
2023/04/09 07:38:02;;;;;;;29.35;18.70;;;13.20;92.30;;;;;;5025333;28;20113;-75
2023/04/09 07:40:28;;;;;;;25.80;16.67;;;13.40;92.20;;;;;;5027250;28;20037;-75
2023/04/09 07:42:54;;;;;;;27.30;18.70;;;13.60;92.00;;;;;;5026780;28;20022;-76
2023/04/09 07:45:20;;;;;;;27.58;18.73;;;13.60;91.60;;;;;;5013566;28;20029;-75
2023/04/09 07:47:46;;;;;;;26.15;17.30;;;13.70;91.50;;;;;;5033912;28;20430;-73
2023/04/09 07:50:11;;;;;;;25.05;17.60;;;13.80;91.50;;;;;;5010211;28;20021;-75
2023/04/09 07:52:37;;;;;;;26.67;18.52;;;13.90;91.40;;;;;;5009823;28;20438;-75
2023/04/09 07:55:03;;;;;;;27.40;19.75;;;13.80;91.00;;;;;;5026643;28;20183;-75
2023/04/09 07:57:32;;;;;;;33.75;23.30;;;13.70;90.40;;;;;;5026532;28;20033;-76
2023/04/09 07:59:57;;;;;;;29.08;20.38;;;13.70;90.50;;;;;;5008796;28;20092;-76
2023/04/09 08:02:23;;;;;;;35.67;26.05;;;13.70;90.40;;;;;;5028589;28;20460;-76
2023/04/09 08:04:49;;;;;;;38.63;27.55;;;13.60;89.30;;;;;;5006564;28;20511;-74
2023/04/09 08:07:17;;;;;;;37.38;22.88;;;13.40;89.10;;;;;;5009966;28;20799;-75
2023/04/09 08:09:42;;;;;;;37.30;25.98;;;13.30;89.60;;;;;;5006047;28;20034;-76
2023/04/09 08:12:08;;;;;;;35.53;24.95;;;13.30;89.30;;;;;;5026059;28;20087;-75
2023/04/09 08:14:34;;;;;;;40.40;26.23;;;13.40;88.90;;;;;;5027281;28;20045;-75
2023/04/09 08:17:00;;;;;;;33.53;21.98;;;13.40;88.30;;;;;;5009209;28;20104;-76
2023/04/09 08:19:26;;;;;;;34.83;24.52;;;13.40;88.70;;;;;;5019143;28;20465;-75
2023/04/09 08:21:51;;;;;;;34.67;23.27;;;13.50;87.60;;;;;;5013094;28;20028;-75
2023/04/09 08:24:17;;;;;;;27.45;19.63;;;13.60;87.10;;;;;;5001332;28;20014;-75
2023/04/09 08:26:43;;;;;;;25.83;19.20;;;13.70;87.10;;;;;;5012502;28;20124;-80
2023/04/09 08:29:11;;;;;;;25.23;17.73;;;13.80;86.30;;;;;;5038460;28;20079;-79
2023/04/09 08:31:37;;;;;;;25.48;16.98;;;13.80;87.00;;;;;;5039104;28;20037;-79
2023/04/09 08:34:04;;;;;;;24.35;15.50;;;13.90;89.60;;;;;;5041101;28;20022;-80
2023/04/09 08:36:31;;;;;;;25.13;16.52;;;14.10;88.50;;;;;;5016971;28;20040;-79
2023/04/09 08:38:59;;;;;;;27.40;20.83;;;14.10;90.10;;;;;;5021827;28;20491;-77
2023/04/09 08:41:29;;;;;;;22.17;15.88;;;14.20;86.80;;;;;;5034079;28;20022;-79
2023/04/09 08:43:55;;;;;;;21.80;15.75;;;14.20;88.60;;;;;;5014548;28;20025;-77
2023/04/09 08:46:22;;;;;;;23.85;17.38;;;14.40;88.50;;;;;;5031608;28;20048;-78
2023/04/09 08:48:50;;;;;;;21.80;15.40;;;14.40;86.10;;;;;;5034705;28;20050;-78
2023/04/09 08:51:20;;;;;;;23.70;15.88;;;14.50;86.90;;;;;;5039720;28;20082;-79
2023/04/09 08:53:46;;;;;;;;;;;14.70;87.20;;;;;;5041143;28;20017;-79
2023/04/09 08:56:13;;;;;;;19.70;13.93;;;14.70;87.30;;;;;;5041791;28;19912;-79
2023/04/09 08:58:45;;;;;;;21.45;14.88;;;14.80;87.80;;;;;;5030222;28;20024;-79
2023/04/09 09:01:21;;;;;;;16.90;11.93;;;;;;;;;;5032352;28;20054;-77
2023/04/09 09:03:58;;;;;;;24.05;16.52;;;;;;;;;;5033714;28;20052;-77
2023/04/09 09:06:27;;;;;;;21.90;14.95;;;;;;;;;;5027173;28;20017;-75
2023/04/09 09:09:07;;;;;;;21.40;15.37;;;;;;;;;;5037622;28;20033;-76
2023/04/09 09:11:34;;;;;;;20.50;12.73;;;;;;;;;;5028952;28;20435;-75
2023/04/09 09:14:01;;;;;;;19.05;14.13;;;;;;;;;;5026796;28;20032;-75
2023/04/09 09:16:28;;;;;;;18.13;12.52;;;;;;;;;;5029649;28;20101;-75
2023/04/09 09:18:55;;;;;;;21.17;14.48;;;;;;;;;;5013483;28;20030;-75
2023/04/09 09:21:23;;;;;;;18.50;13.45;;;;;;;;;;5031553;28;20032;-75
2023/04/09 09:23:49;;;;;;;17.73;12.02;;;;;;;;;;5028528;28;20040;-77
2023/04/09 09:26:19;;;;;;;18.38;13.15;;;;;;;;;;5037465;28;20388;-75
2023/04/09 09:28:48;;;;;;;22.60;17.90;;;;;;;;;;5034106;28;20045;-75
2023/04/09 09:31:15;;;;;;;20.38;14.27;;;;;;;;;;5034526;28;20029;-75
2023/04/09 09:33:41;;;;;;;23.65;16.50;;;;;;;;;;5035082;28;20017;-75
2023/04/09 09:36:08;;;;;;;23.30;16.20;;;;;;;;;;5019173;28;20025;-77
2023/04/09 09:38:50;;;;;;;22.85;15.63;;;;;;;;;;5016791;28;20029;-75
2023/04/09 09:41:18;;;;;;;19.77;14.95;;;;;;;;;;5036521;28;20025;-75
2023/04/09 09:43:44;;;;;;;20.42;14.02;;;;;;;;;;5042692;28;20079;-74
2023/04/09 09:46:12;;;;;;;22.23;14.48;;;;;;;;;;5025170;28;21220;-75
2023/04/09 09:48:38;;;;;;;17.42;11.43;;;;;;;;;;5033783;28;20037;-75
2023/04/09 09:51:08;;;;;;;16.98;11.73;;;;;;;;;;5013578;28;20167;-77
2023/04/09 09:53:38;;;;;;;15.20;10.20;;;;;;;;;;5018578;28;20565;-78
2023/04/09 09:56:04;;;;;;;15.82;11.15;;;;;;;;;;5031478;28;20541;-77
2023/04/09 09:58:37;;;;;;;15.77;10.32;;;;;;;;;;5009540;28;20128;-76
2023/04/09 10:01:09;;;;;;;17.10;9.93;;;;;;;;;;5026997;28;20112;-75
2023/04/09 10:03:37;;;;;;;19.13;10.65;;;;;;;;;;5025616;28;20021;-74
2023/04/09 10:06:03;;;;;;;13.60;8.75;;;;;;;;;;5030059;28;20022;-76
2023/04/09 10:08:32;;;;;;;13.88;9.18;;;;;;;;;;5029858;28;20041;-77
2023/04/09 10:10:58;;;;;;;12.43;8.45;;;;;;;;;;5030194;28;20468;-75
2023/04/09 10:13:28;;;;;;;16.92;8.55;;;;;;;;;;5020611;28;20021;-76
2023/04/09 10:15:55;;;;;;;13.65;9.10;;;;;;;;;;5024856;28;20047;-77
2023/04/09 10:18:23;;;;;;;14.35;9.35;;;;;;;;;;5030000;28;20029;-77
2023/04/09 10:20:56;;;;;;;12.38;8.70;;;;;;;;;;5030013;28;20088;-76
2023/04/09 10:23:41;;;;;;;12.77;8.48;;;;;;;;;;5027566;28;20024;-75
2023/04/09 10:26:07;;;;;;;11.25;7.80;;;;;;;;;;5027680;28;20029;-74
2023/04/09 10:28:33;;;;;;;12.98;8.57;;;;;;;;;;5006909;28;20036;-75
2023/04/09 10:31:00;;;;;;;11.55;8.05;;;;;;;;;;5028103;28;20064;-76
2023/04/09 10:33:27;;;;;;;12.90;8.27;;;;;;;;;;5029657;28;20039;-76
2023/04/09 10:35:54;;;;;;;12.43;8.25;;;;;;;;;;5028345;28;20187;-76
2023/04/09 10:38:34;;;;;;;12.43;8.55;;;;;;;;;;5022467;28;20018;-76
2023/04/09 10:41:21;;;;;;;11.10;7.75;;;;;;;;;;5021546;28;20116;-74
2023/04/09 10:43:49;;;;;;;11.57;7.78;;;;;;;;;;5014848;28;20033;-75
2023/04/09 10:46:29;;;;;;;12.88;8.98;;;;;;;;;;5030097;28;20074;-78
2023/04/09 10:48:55;;;;;;;;;;;;;;;;;;5010925;28;20099;-77
2023/04/09 10:51:22;;;;;;;14.50;8.20;;;;;;;;;;5029922;28;19913;-76
2023/04/09 10:53:53;;;;;;;11.18;7.45;;;;;;;;;;5032694;28;20620;-76
2023/04/09 10:56:19;;;;;;;;;;;;;;;;;;5010421;28;20104;-78
2023/04/09 10:58:45;;;;;;;10.20;7.22;;;;;;;;;;5029538;28;20004;-77
2023/04/09 11:01:20;;;;;;;12.43;7.20;;;;;;;;;;5028833;28;21002;-75
2023/04/09 11:04:04;;;;;;;9.93;6.72;;;;;;;;;;5017167;28;20099;-80
2023/04/09 11:06:31;;;;;;;10.20;7.32;;;;;;;;;;5030761;28;20042;-80
2023/04/09 11:09:02;;;;;;;8.85;6.10;;;;;;;;;;5011167;28;20056;-79
2023/04/09 11:11:28;;;;;;;8.43;5.90;;;;;;;;;;5028613;28;20055;-80
2023/04/09 11:13:58;;;;;;;10.38;6.45;;;;;;;;;;5011396;28;20075;-78
2023/04/09 11:16:25;;;;;;;;;;;;;;;;;;5011460;28;20021;-80
2023/04/09 11:18:55;;;;;;;9.75;6.25;;;;;;;;;;5011074;28;19916;-80
2023/04/09 11:21:20;;;;;;;9.88;7.10;;;;;;;;;;5011814;28;20075;-79
2023/04/09 11:23:53;;;;;;;11.07;6.95;;;;;;;;;;5029672;28;20495;-79
2023/04/09 11:26:34;;;;;;;7.68;5.05;;;;;;;;;;5030422;28;20722;-79
2023/04/09 11:29:05;;;;;;;7.72;5.53;;;;;;;;;;5028733;28;20067;-80
2023/04/09 11:31:31;;;;;;;9.52;6.13;;;;;;;;;;5030666;28;20044;-82
2023/04/09 11:33:57;;;;;;;7.45;5.05;;;;;;;;;;5038786;28;20081;-82
2023/04/09 11:36:28;;;;;;;8.55;6.03;;;;;;;;;;5025408;28;20053;-81
2023/04/09 11:38:54;;;;;;;9.38;5.82;;;;;;;;;;5011741;28;20060;-80
2023/04/09 11:41:33;;;;;;;8.32;5.75;;;;;;;;;;5030185;28;20029;-81
2023/04/09 11:44:02;;;;;;;8.32;5.25;;;;;;;;;;5029207;28;20021;-79
2023/04/09 11:46:28;;;;;;;7.82;5.15;;;;;;;;;;5023413;28;20029;-79
2023/04/09 11:48:55;;;;;;;7.80;5.57;;;;;;;;;;5025739;28;20041;-78
2023/04/09 11:51:22;;;;;;;8.07;5.07;;;;;;;;;;5029494;28;20104;-77
2023/04/09 11:53:52;;;;;;;8.27;5.80;;;;;;;;;;5035505;28;20112;-76
2023/04/09 11:56:19;;;;;;;8.93;5.43;;;;;;;;;;5012640;28;20052;-78
2023/04/09 11:58:48;;;;;;;8.25;5.00;;;;;;;;;;5027558;28;20022;-78
2023/04/09 12:01:15;;;;;;;8.20;5.43;;;;;;;;;;5028221;28;20120;-77
2023/04/09 12:03:41;;;;;;;7.85;4.97;;;;;;;;;;5024751;28;20029;-77
2023/04/09 12:06:10;;;;;;;6.63;4.68;;;;;;;;;;5027682;28;20534;-80
2023/04/09 12:08:36;;;;;;;6.23;4.20;;;;;;;;;;5010199;28;20049;-76
2023/04/09 12:11:10;;;;;;;7.18;4.50;;;;;;;;;;5010942;28;20143;-78
2023/04/09 12:13:36;;;;;;;6.57;4.38;;;;;;;;;;5026990;28;20017;-78
2023/04/09 12:16:02;;;;;;;7.85;4.47;;;;;;;;;;5011409;28;20040;-77
2023/04/09 12:18:28;;;;;;;7.15;4.60;;;;;;;;;;5012714;28;20104;-76
2023/04/09 12:20:54;;;;;;;7.97;4.85;;;;;;;;;;5028208;28;20037;-79
2023/04/09 12:23:20;;;;;;;7.22;4.40;;;;;;;;;;5005693;28;20051;-77
2023/04/09 12:25:46;;;;;;;6.65;4.70;;;;;;;;;;5030883;28;20790;-77
2023/04/09 12:28:15;;;;;;;9.05;5.50;;;;;;;;;;5027985;28;20399;-77
2023/04/09 12:30:42;;;;;;;6.90;4.43;;;;;;;;;;5027819;28;20060;-78
2023/04/09 12:33:08;;;;;;;6.90;4.88;;;;;;;;;;5008661;28;20024;-78
2023/04/09 12:35:34;;;;;;;8.40;5.03;;;;;;;;;;5029391;28;20048;-76
2023/04/09 12:38:00;;;;;;;7.22;4.60;;;;;;;;;;5029137;28;20075;-78
2023/04/09 12:40:27;;;;;;;7.07;5.03;;;;;;;;;;5009340;28;20034;-79
2023/04/09 12:42:53;;;;;;;9.48;6.45;;;;;;;;;;5009338;28;20025;-78
2023/04/09 12:45:19;;;;;;;8.60;5.90;;;;;;;;;;5011931;28;20440;-79
2023/04/09 12:47:47;;;;;;;8.90;6.30;;;;;;;;;;5011271;28;20681;-81
2023/04/09 12:50:16;;;;;;;8.00;5.53;;;;;;;;;;5026090;28;20017;-81
2023/04/09 12:52:48;;;;;;;10.50;6.97;;;;;;;;;;5018363;28;20025;-79
2023/04/09 12:55:16;;;;;;;8.80;5.85;;;;;;;;;;5017328;28;20025;-81
2023/04/09 12:57:43;;;;;;;8.50;6.40;;;;;;;;;;5019895;28;20056;-80
2023/04/09 13:00:11;;;;;;;9.45;6.25;;;;;;;;;;5012989;28;20030;-79
2023/04/09 13:02:37;;;;;;;9.27;6.97;;;;;;;;;;5006410;28;20074;-80
2023/04/09 13:05:03;;;;;;;9.32;6.38;;;;;;;;;;5007728;28;20061;-80
2023/04/09 13:07:30;;;;;;;9.45;6.43;;;;;;;;;;5012112;28;20082;-79